createdAt,value
2022-12-18T00:00:32.343Z,91.80
2022-12-18T00:01:07.881Z,91.80
2022-12-18T00:01:41.830Z,91.80
2022-12-18T00:02:17.777Z,91.90
2022-12-18T00:02:53.589Z,91.90
2022-12-18T00:03:27.687Z,91.90
2022-12-18T00:04:04.717Z,91.80
2022-12-18T00:04:39.243Z,91.80
2022-12-18T00:05:15.063Z,91.80
2022-12-18T00:05:50.866Z,91.80
2022-12-18T00:06:26.102Z,91.80
2022-12-18T00:07:03.002Z,91.80
2022-12-18T00:07:38.130Z,91.80
2022-12-18T00:08:11.713Z,91.70
2022-12-18T00:08:47.826Z,91.70
2022-12-18T00:09:22.789Z,91.70
2022-12-18T00:10:01.198Z,91.70
2022-12-18T00:10:35.497Z,91.60
2022-12-18T00:11:10.192Z,91.60
2022-12-18T00:11:45.510Z,91.60
2022-12-18T00:12:20.396Z,91.50
2022-12-18T00:12:56.001Z,91.40
2022-12-18T00:13:31.359Z,91.50
2022-12-18T00:14:05.919Z,91.40
2022-12-18T00:14:42.539Z,91.30
2022-12-18T00:15:17.009Z,91.30
2022-12-18T00:15:52.111Z,91.40
2022-12-18T00:16:37.003Z,91.40
2022-12-18T00:17:11.227Z,91.50
2022-12-18T00:17:47.947Z,91.50
2022-12-18T00:18:21.172Z,91.60
2022-12-18T00:18:57.461Z,91.60
2022-12-18T00:19:33.525Z,91.60
2022-12-18T00:20:10.375Z,91.70
2022-12-18T00:20:45.238Z,91.60
2022-12-18T00:21:19.389Z,91.60
2022-12-18T00:21:53.613Z,91.60
2022-12-18T00:22:29.530Z,91.60
2022-12-18T00:23:04.195Z,91.70
2022-12-18T00:23:40.119Z,91.70
2022-12-18T00:24:14.294Z,91.70
2022-12-18T00:24:48.208Z,91.70
2022-12-18T00:25:22.655Z,91.70
2022-12-18T00:25:58.051Z,91.70
2022-12-18T00:26:33.965Z,91.70
2022-12-18T00:27:08.782Z,91.60
2022-12-18T00:27:44.346Z,91.60
2022-12-18T00:28:17.887Z,91.50
2022-12-18T00:28:52.117Z,91.40
2022-12-18T00:29:27.253Z,91.40
2022-12-18T00:30:03.588Z,91.40
2022-12-18T00:30:37.979Z,91.50
2022-12-18T00:31:14.042Z,91.30
2022-12-18T00:31:48.219Z,91.30
2022-12-18T00:32:22.655Z,91.30
2022-12-18T00:32:58.141Z,91.20
2022-12-18T00:33:32.952Z,91.10
2022-12-18T00:34:06.865Z,91.10
2022-12-18T00:34:42.344Z,91.10
2022-12-18T00:35:16.446Z,91.10
2022-12-18T00:35:51.034Z,91.20
2022-12-18T00:36:27.575Z,91.20
2022-12-18T00:37:02.230Z,91.20
2022-12-18T00:37:37.289Z,91.30
2022-12-18T00:38:13.527Z,91.40
2022-12-18T00:38:47.681Z,91.40
2022-12-18T00:39:25.801Z,91.40
2022-12-18T00:39:59.393Z,91.40
2022-12-18T00:40:33.796Z,91.40
2022-12-18T00:41:08.805Z,91.40
2022-12-18T00:42:00.695Z,91.30
2022-12-18T00:42:53.172Z,91.20
2022-12-18T00:43:27.673Z,91.20
2022-12-18T00:44:01.311Z,91.20
2022-12-18T00:44:34.101Z,91.20
2022-12-18T00:45:12.877Z,91.30
2022-12-18T00:45:48.392Z,91.30
2022-12-18T00:46:23.322Z,91.30
2022-12-18T00:46:57.159Z,91.30
2022-12-18T00:47:32.084Z,91.30
2022-12-18T00:48:07.874Z,91.30
2022-12-18T00:48:44.562Z,91.30
2022-12-18T00:49:30.402Z,91.30
2022-12-18T00:50:06.336Z,91.20
2022-12-18T00:50:39.607Z,91.20
2022-12-18T00:51:15.632Z,91.20
2022-12-18T00:51:49.320Z,91.20
2022-12-18T00:52:23.254Z,91.20
2022-12-18T00:52:57.711Z,91.20
2022-12-18T00:53:31.863Z,91.10
2022-12-18T00:54:06.515Z,91.10
2022-12-18T00:54:42.736Z,91.10
2022-12-18T00:55:18.238Z,91.10
2022-12-18T00:55:55.042Z,91.10
2022-12-18T00:56:29.503Z,91.10
2022-12-18T00:57:02.855Z,91.20
2022-12-18T00:57:36.192Z,91.20
2022-12-18T00:58:11.756Z,91.20
2022-12-18T00:58:45.666Z,91.20
2022-12-18T00:59:21.501Z,91.20
2022-12-18T00:59:57.068Z,91.20
2022-12-18T01:00:33.840Z,91.20
2022-12-18T01:01:07.276Z,91.20
2022-12-18T01:01:42.846Z,91.10
2022-12-18T01:02:18.986Z,91.10
2022-12-18T01:02:53.598Z,91.10
2022-12-18T01:03:27.675Z,91.00
2022-12-18T01:04:03.432Z,90.90
2022-12-18T01:04:37.418Z,90.90
2022-12-18T01:05:13.896Z,90.90
2022-12-18T01:05:49.884Z,90.90
2022-12-18T01:06:25.571Z,90.90
2022-12-18T01:07:00.442Z,90.80
2022-12-18T01:07:35.816Z,90.80
2022-12-18T01:08:09.752Z,90.80
2022-12-18T01:08:44.031Z,90.80
2022-12-18T01:09:21.220Z,90.80
2022-12-18T01:09:55.668Z,90.80
2022-12-18T01:10:29.545Z,90.90
2022-12-18T01:11:11.904Z,90.90
2022-12-18T01:11:44.853Z,90.80
2022-12-18T01:12:18.135Z,90.80
2022-12-18T01:12:52.628Z,90.70
2022-12-18T01:13:27.084Z,90.80
2022-12-18T01:14:01.957Z,90.80
2022-12-18T01:14:37.267Z,90.70
2022-12-18T01:15:13.509Z,90.60
2022-12-18T01:15:51.969Z,90.50
2022-12-18T01:16:26.894Z,90.40
2022-12-18T01:17:01.828Z,90.40
2022-12-18T01:17:35.040Z,90.40
2022-12-18T01:18:09.826Z,90.40
2022-12-18T01:18:43.546Z,90.50
2022-12-18T01:19:17.588Z,90.50
2022-12-18T01:19:55.992Z,90.50
2022-12-18T01:20:29.629Z,90.40
2022-12-18T01:21:08.255Z,90.50
2022-12-18T01:21:44.570Z,90.40
2022-12-18T01:22:18.421Z,90.50
2022-12-18T01:22:51.657Z,90.50
2022-12-18T01:23:28.742Z,90.50
2022-12-18T01:24:03.739Z,90.50
2022-12-18T01:24:37.439Z,90.50
2022-12-18T01:25:11.685Z,90.50
2022-12-18T01:25:45.067Z,90.40
2022-12-18T01:26:19.342Z,90.40
2022-12-18T01:26:55.116Z,90.30
2022-12-18T01:27:30.227Z,90.30
2022-12-18T01:28:06.276Z,90.30
2022-12-18T01:28:39.745Z,90.30
2022-12-18T01:29:15.923Z,90.30
2022-12-18T01:29:50.793Z,90.20
2022-12-18T01:30:26.715Z,90.20
2022-12-18T01:31:13.785Z,90.10
2022-12-18T01:31:47.504Z,90.10
2022-12-18T01:32:22.374Z,90.10
2022-12-18T01:32:56.871Z,90.10
2022-12-18T01:33:29.972Z,90.10
2022-12-18T01:34:04.824Z,90.10
2022-12-18T01:34:39.698Z,90.10
2022-12-18T01:35:13.833Z,90.00
2022-12-18T01:35:48.817Z,90.00
2022-12-18T01:36:24.833Z,90.00
2022-12-18T01:36:59.449Z,90.00
2022-12-18T01:37:34.768Z,90.00
2022-12-18T01:38:09.302Z,90.00
2022-12-18T01:38:42.734Z,90.00
2022-12-18T01:39:18.236Z,90.10
2022-12-18T01:39:54.186Z,90.00
2022-12-18T01:40:27.983Z,90.00
2022-12-18T01:41:02.375Z,89.90
2022-12-18T01:41:51.020Z,89.90
2022-12-18T01:42:27.230Z,90.00
2022-12-18T01:43:01.167Z,89.90
2022-12-18T01:43:49.720Z,89.80
2022-12-18T01:44:59.443Z,89.60
2022-12-18T01:45:34.035Z,89.40
2022-12-18T01:46:10.400Z,89.30
2022-12-18T01:46:45.881Z,89.30
2022-12-18T01:47:24.512Z,89.30
2022-12-18T01:47:59.952Z,89.20
2022-12-18T01:48:35.515Z,89.10
2022-12-18T01:49:09.862Z,89.00
2022-12-18T01:49:45.195Z,89.00
2022-12-18T01:50:24.139Z,89.00
2022-12-18T01:51:02.573Z,88.90
2022-12-18T01:51:37.998Z,88.80
2022-12-18T01:52:14.300Z,88.90
2022-12-18T01:52:51.140Z,88.90
2022-12-18T01:53:25.184Z,89.10
2022-12-18T01:54:01.253Z,89.10
2022-12-18T01:54:35.160Z,89.10
2022-12-18T01:55:09.496Z,89.30
2022-12-18T01:55:49.435Z,89.40
2022-12-18T01:56:23.970Z,89.30
2022-12-18T01:56:58.735Z,89.30
2022-12-18T01:57:34.078Z,89.40
2022-12-18T01:58:08.906Z,89.50
2022-12-18T01:58:47.753Z,89.30
2022-12-18T01:59:23.386Z,89.40
2022-12-18T02:00:02.363Z,89.40
2022-12-18T02:00:49.210Z,89.30
2022-12-18T02:01:26.729Z,89.40
2022-12-18T02:02:01.572Z,89.30
2022-12-18T02:02:37.364Z,89.20
2022-12-18T02:03:11.320Z,88.90
2022-12-18T02:03:48.027Z,88.80
2022-12-18T02:04:25.318Z,88.70
2022-12-18T02:04:59.807Z,88.80
2022-12-18T02:05:46.980Z,88.90
2022-12-18T02:06:28.214Z,88.90
2022-12-18T02:07:08.529Z,89.10
2022-12-18T02:07:55.563Z,89.10
2022-12-18T02:08:35.927Z,89.10
2022-12-18T02:09:14.124Z,89.30
2022-12-18T02:09:51.199Z,89.40
2022-12-18T02:10:30.134Z,89.50
2022-12-18T02:11:09.651Z,89.60
2022-12-18T02:11:56.746Z,89.70
2022-12-18T02:12:39.383Z,89.80
2022-12-18T02:13:19.411Z,89.90
2022-12-18T02:14:24.819Z,89.90
2022-12-18T02:15:09.597Z,89.80
2022-12-18T02:15:57.256Z,89.80
2022-12-18T02:16:41.745Z,89.80
2022-12-18T02:17:21.953Z,89.70
2022-12-18T02:18:01.105Z,89.70
2022-12-18T02:18:38.198Z,90.00
2022-12-18T02:19:22.761Z,89.50
2022-12-18T02:20:10.431Z,89.70
2022-12-18T02:20:49.929Z,89.90
2022-12-18T02:21:33.331Z,90.00
2022-12-18T02:22:27.522Z,89.90
2022-12-18T02:23:14.156Z,89.90
2022-12-18T02:23:57.047Z,89.80
2022-12-18T02:24:36.954Z,89.60
2022-12-18T02:25:26.492Z,89.50
2022-12-18T02:26:20.740Z,89.40
2022-12-18T02:26:59.822Z,89.40
2022-12-18T02:27:37.129Z,89.50
2022-12-18T02:28:15.154Z,89.50
2022-12-18T02:28:53.511Z,89.40
2022-12-18T02:29:31.436Z,89.50
2022-12-18T02:30:07.871Z,89.60
2022-12-18T02:30:42.553Z,89.60
2022-12-18T02:31:22.079Z,89.50
2022-12-18T02:32:00.302Z,89.40
2022-12-18T02:32:42.644Z,89.30
2022-12-18T02:33:17.746Z,89.30
2022-12-18T02:33:54.731Z,89.30
2022-12-18T02:34:31.859Z,89.30
2022-12-18T02:35:08.150Z,89.40
2022-12-18T02:35:44.918Z,89.50
2022-12-18T02:36:21.923Z,89.30
2022-12-18T02:36:59.262Z,89.50
2022-12-18T02:37:37.078Z,89.60
2022-12-18T02:38:15.575Z,89.70
2022-12-18T02:38:53.785Z,89.80
2022-12-18T02:39:32.951Z,89.90
2022-12-18T02:40:13.032Z,90.20
2022-12-18T02:40:47.743Z,89.80
2022-12-18T02:41:27.193Z,90.00
2022-12-18T02:42:04.120Z,89.90
2022-12-18T02:42:38.461Z,90.00
2022-12-18T02:43:17.681Z,90.00
2022-12-18T02:43:57.347Z,90.00
2022-12-18T02:44:32.079Z,90.00
2022-12-18T02:45:08.934Z,90.00
2022-12-18T02:45:49.464Z,90.00
2022-12-18T02:46:34.071Z,90.00
2022-12-18T02:47:13.431Z,90.00
2022-12-18T02:47:50.457Z,90.00
2022-12-18T02:48:28.225Z,90.00
2022-12-18T02:49:10.301Z,90.00
2022-12-18T02:49:56.339Z,89.80
2022-12-18T02:50:43.496Z,89.80
2022-12-18T02:51:22.162Z,89.80
2022-12-18T02:52:03.533Z,89.80
2022-12-18T02:52:45.037Z,89.80
2022-12-18T02:53:26.742Z,89.70
2022-12-18T02:54:08.980Z,89.80
2022-12-18T02:54:57.282Z,89.80
2022-12-18T02:55:43.558Z,89.90
2022-12-18T02:56:24.541Z,89.90
2022-12-18T02:57:02.892Z,89.80
2022-12-18T02:57:44.566Z,89.70
2022-12-18T02:58:24.240Z,89.70
2022-12-18T02:59:03.783Z,89.60
2022-12-18T02:59:54.210Z,89.60
2022-12-18T03:00:33.417Z,89.70
2022-12-18T03:01:14.749Z,89.90
2022-12-18T03:01:55.335Z,89.80
2022-12-18T03:02:36.909Z,89.90
2022-12-18T03:03:16.958Z,89.80
2022-12-18T03:03:57.520Z,89.80
2022-12-18T03:04:36.584Z,90.00
2022-12-18T03:05:19.148Z,90.00
2022-12-18T03:05:57.423Z,90.00
2022-12-18T03:06:35.913Z,90.10
2022-12-18T03:07:18.146Z,90.10
2022-12-18T03:07:58.819Z,90.10
2022-12-18T03:08:40.844Z,90.10
2022-12-18T03:09:18.120Z,90.00
2022-12-18T03:09:53.582Z,90.10
2022-12-18T03:10:31.196Z,90.10
2022-12-18T03:11:11.772Z,90.20
2022-12-18T03:12:13.051Z,90.20
2022-12-18T03:12:53.108Z,90.30
2022-12-18T03:13:34.598Z,90.30
2022-12-18T03:14:11.066Z,90.30
2022-12-18T03:14:47.737Z,90.30
2022-12-18T03:15:29.692Z,90.30
2022-12-18T03:16:16.356Z,90.50
2022-12-18T03:16:53.671Z,90.30
2022-12-18T03:17:31.655Z,90.30
2022-12-18T03:18:12.745Z,90.20
2022-12-18T03:18:51.693Z,90.30
2022-12-18T03:19:28.445Z,90.30
2022-12-18T03:20:10.778Z,90.30
2022-12-18T03:20:49.625Z,90.20
2022-12-18T03:21:35.662Z,90.20
2022-12-18T03:22:11.569Z,90.30
2022-12-18T03:22:59.377Z,90.30
2022-12-18T03:23:39.631Z,90.40
2022-12-18T03:24:19.472Z,90.40
2022-12-18T03:24:55.926Z,90.50
2022-12-18T03:25:34.110Z,90.50
2022-12-18T03:26:12.270Z,90.50
2022-12-18T03:26:54.799Z,90.60
2022-12-18T03:27:32.130Z,90.60
2022-12-18T03:28:14.888Z,90.50
2022-12-18T03:28:52.998Z,90.50
2022-12-18T03:29:30.286Z,90.50
2022-12-18T03:30:09.220Z,90.40
2022-12-18T03:30:48.391Z,90.50
2022-12-18T03:31:24.964Z,90.60
2022-12-18T03:32:05.124Z,90.70
2022-12-18T03:32:45.655Z,90.80
2022-12-18T03:33:23.174Z,90.70
2022-12-18T03:34:01.760Z,90.70
2022-12-18T03:34:48.149Z,90.90
2022-12-18T03:35:27.163Z,90.90
2022-12-18T03:36:02.329Z,91.00
2022-12-18T03:36:36.795Z,91.00
2022-12-18T03:37:10.885Z,91.00
2022-12-18T03:37:45.848Z,91.00
2022-12-18T03:38:20.589Z,91.10
2022-12-18T03:38:59.992Z,91.40
2022-12-18T03:39:34.356Z,91.20
2022-12-18T03:40:09.968Z,91.20
2022-12-18T03:40:54.216Z,91.20
2022-12-18T03:41:33.953Z,91.20
2022-12-18T03:42:40.897Z,91.20
2022-12-18T03:43:30.111Z,91.10
2022-12-18T03:44:10.134Z,91.10
2022-12-18T03:44:55.547Z,91.10
2022-12-18T03:45:35.205Z,91.00
2022-12-18T03:46:16.576Z,91.00
2022-12-18T03:47:00.252Z,91.00
2022-12-18T03:47:42.017Z,90.90
2022-12-18T03:48:20.615Z,90.80
2022-12-18T03:49:01.767Z,90.80
2022-12-18T03:49:41.164Z,90.80
2022-12-18T03:50:19.465Z,90.80
2022-12-18T03:50:59.539Z,90.80
2022-12-18T03:51:42.627Z,90.80
2022-12-18T03:52:23.212Z,90.80
2022-12-18T03:53:02.897Z,90.80
2022-12-18T03:53:45.014Z,90.90
2022-12-18T03:54:20.268Z,90.90
2022-12-18T03:55:04.126Z,90.80
2022-12-18T03:55:41.736Z,90.80
2022-12-18T03:56:18.060Z,90.70
2022-12-18T03:56:58.938Z,90.70
2022-12-18T03:57:35.434Z,90.80
2022-12-18T03:58:14.984Z,90.80
2022-12-18T03:59:07.137Z,91.10
2022-12-18T03:59:42.457Z,90.90
2022-12-18T04:00:19.697Z,90.80
2022-12-18T04:01:06.936Z,90.80
2022-12-18T04:01:44.804Z,90.80
2022-12-18T04:02:22.332Z,90.80
2022-12-18T04:02:59.785Z,90.90
2022-12-18T04:03:43.716Z,90.80
2022-12-18T04:04:19.959Z,90.80
2022-12-18T04:04:57.729Z,90.80
2022-12-18T04:05:34.731Z,90.90
2022-12-18T04:06:10.206Z,90.80
2022-12-18T04:06:48.138Z,90.80
2022-12-18T04:07:22.059Z,90.90
2022-12-18T04:07:57.748Z,90.90
2022-12-18T04:08:33.002Z,90.80
2022-12-18T04:09:12.041Z,90.80
2022-12-18T04:09:52.678Z,90.80
2022-12-18T04:10:32.057Z,90.70
2022-12-18T04:11:07.605Z,90.80
2022-12-18T04:11:45.374Z,90.70
2022-12-18T04:12:21.883Z,90.60
2022-12-18T04:12:58.310Z,90.60
2022-12-18T04:13:36.501Z,90.50
2022-12-18T04:14:17.872Z,90.50
2022-12-18T04:14:56.984Z,90.50
2022-12-18T04:15:32.791Z,90.60
2022-12-18T04:16:07.924Z,90.60
2022-12-18T04:16:42.710Z,90.60
2022-12-18T04:17:21.782Z,90.60
2022-12-18T04:17:56.515Z,90.70
2022-12-18T04:18:35.205Z,90.70
2022-12-18T04:19:10.124Z,90.70
2022-12-18T04:19:47.948Z,90.70
2022-12-18T04:20:21.866Z,90.70
2022-12-18T04:20:57.305Z,90.70
2022-12-18T04:21:31.851Z,90.60
2022-12-18T04:22:05.894Z,90.60
2022-12-18T04:22:47.255Z,90.50
2022-12-18T04:23:20.769Z,90.50
2022-12-18T04:23:56.028Z,90.50
2022-12-18T04:24:31.846Z,90.50
2022-12-18T04:25:19.456Z,90.50
2022-12-18T04:26:13.775Z,90.50
2022-12-18T04:27:12.173Z,90.50
2022-12-18T04:27:51.916Z,90.50
2022-12-18T04:28:26.842Z,90.50
2022-12-18T04:29:00.390Z,90.40
2022-12-18T04:29:36.865Z,90.50
2022-12-18T04:30:12.391Z,90.50
2022-12-18T04:30:46.815Z,90.50
2022-12-18T04:31:22.296Z,90.60
2022-12-18T04:31:57.462Z,90.70
2022-12-18T04:32:33.426Z,90.70
2022-12-18T04:33:12.160Z,90.70
2022-12-18T04:33:47.642Z,90.80
2022-12-18T04:34:22.115Z,90.80
2022-12-18T04:34:59.419Z,90.80
2022-12-18T04:35:34.357Z,90.80
2022-12-18T04:36:10.508Z,90.80
2022-12-18T04:36:45.522Z,90.80
2022-12-18T04:37:20.702Z,90.80
2022-12-18T04:37:56.520Z,90.80
2022-12-18T04:38:33.451Z,90.80
2022-12-18T04:39:13.117Z,90.80
2022-12-18T04:39:47.895Z,90.80
2022-12-18T04:40:29.279Z,90.80
2022-12-18T04:41:02.720Z,90.80
2022-12-18T04:41:37.456Z,90.80
2022-12-18T04:42:13.684Z,90.80
2022-12-18T04:42:47.554Z,90.80
2022-12-18T04:43:22.036Z,90.90
2022-12-18T04:43:57.025Z,90.90
2022-12-18T04:44:31.353Z,90.90
2022-12-18T04:45:10.409Z,90.90
2022-12-18T04:45:44.412Z,90.90
2022-12-18T04:46:17.223Z,91.00
2022-12-18T04:46:51.649Z,90.90
2022-12-18T04:47:27.896Z,90.90
2022-12-18T04:48:02.114Z,90.90
2022-12-18T04:48:38.622Z,90.90
2022-12-18T04:49:13.552Z,90.90
2022-12-18T04:49:48.542Z,90.90
2022-12-18T04:50:22.326Z,91.00
2022-12-18T04:50:58.055Z,91.00
2022-12-18T04:51:31.847Z,91.00
2022-12-18T04:52:18.838Z,91.00
2022-12-18T04:52:52.536Z,91.10
2022-12-18T04:53:27.179Z,91.00
2022-12-18T04:54:01.962Z,91.20
2022-12-18T04:54:35.325Z,91.20
2022-12-18T04:55:10.734Z,90.90
2022-12-18T04:55:45.749Z,90.90
2022-12-18T04:56:18.508Z,90.90
2022-12-18T04:56:52.928Z,90.90
2022-12-18T04:57:28.610Z,90.90
2022-12-18T04:58:03.646Z,90.90
2022-12-18T04:58:38.100Z,90.90
2022-12-18T04:59:14.880Z,90.90
2022-12-18T04:59:47.921Z,90.90
2022-12-18T05:00:23.163Z,90.90
2022-12-18T05:00:57.453Z,90.90
2022-12-18T05:01:34.808Z,90.80
2022-12-18T05:02:10.252Z,90.80
2022-12-18T05:02:46.131Z,90.80
2022-12-18T05:03:20.267Z,90.80
2022-12-18T05:03:54.463Z,90.80
2022-12-18T05:04:30.357Z,90.80
2022-12-18T05:05:05.166Z,90.80
2022-12-18T05:05:41.315Z,90.70
2022-12-18T05:06:15.997Z,90.70
2022-12-18T05:06:50.124Z,90.70
2022-12-18T05:07:24.603Z,90.70
2022-12-18T05:07:59.456Z,90.60
2022-12-18T05:08:33.594Z,90.60
2022-12-18T05:09:07.045Z,90.60
2022-12-18T05:09:41.963Z,90.60
2022-12-18T05:10:17.393Z,90.50
2022-12-18T05:10:51.477Z,90.50
2022-12-18T05:11:26.434Z,90.60
2022-12-18T05:12:00.860Z,90.60
2022-12-18T05:12:34.100Z,90.50
2022-12-18T05:13:08.931Z,90.50
2022-12-18T05:13:42.840Z,90.50
2022-12-18T05:14:16.329Z,90.40
2022-12-18T05:14:50.446Z,90.40
2022-12-18T05:15:26.421Z,90.40
2022-12-18T05:16:00.659Z,90.40
2022-12-18T05:16:36.725Z,90.40
2022-12-18T05:17:10.416Z,90.40
2022-12-18T05:17:46.360Z,90.30
2022-12-18T05:18:21.700Z,90.30
2022-12-18T05:18:55.981Z,90.30
2022-12-18T05:19:30.917Z,90.20
2022-12-18T05:20:07.910Z,90.10
2022-12-18T05:20:42.471Z,90.10
2022-12-18T05:21:16.272Z,90.20
2022-12-18T05:21:52.009Z,90.20
2022-12-18T05:22:27.609Z,90.10
2022-12-18T05:23:02.233Z,90.10
2022-12-18T05:23:40.582Z,90.00
2022-12-18T05:24:15.362Z,90.00
2022-12-18T05:24:50.567Z,90.00
2022-12-18T05:25:25.954Z,90.00
2022-12-18T05:26:02.380Z,90.10
2022-12-18T05:26:35.983Z,90.10
2022-12-18T05:27:09.649Z,90.10
2022-12-18T05:27:43.730Z,90.20
2022-12-18T05:28:17.664Z,90.20
2022-12-18T05:28:51.468Z,90.20
2022-12-18T05:29:27.780Z,90.30
2022-12-18T05:30:02.648Z,90.30
2022-12-18T05:30:39.774Z,90.30
2022-12-18T05:31:15.381Z,90.30
2022-12-18T05:31:49.720Z,90.30
2022-12-18T05:32:24.276Z,90.30
2022-12-18T05:32:59.229Z,90.30
2022-12-18T05:33:35.610Z,90.20
2022-12-18T05:34:09.690Z,90.20
2022-12-18T05:34:47.777Z,90.20
2022-12-18T05:35:20.606Z,90.40
2022-12-18T05:35:54.484Z,90.20
2022-12-18T05:36:30.547Z,90.20
2022-12-18T05:37:04.710Z,90.20
2022-12-18T05:37:42.960Z,90.20
2022-12-18T05:38:18.406Z,90.20
2022-12-18T05:38:53.305Z,90.20
2022-12-18T05:39:28.154Z,90.30
2022-12-18T05:40:04.201Z,90.20
2022-12-18T05:40:37.926Z,90.20
2022-12-18T05:41:13.081Z,90.20
2022-12-18T05:41:48.023Z,90.20
2022-12-18T05:42:22.050Z,90.10
2022-12-18T05:42:57.156Z,90.20
2022-12-18T05:43:31.480Z,90.10
2022-12-18T05:44:06.643Z,90.10
2022-12-18T05:44:41.491Z,90.10
2022-12-18T05:45:16.951Z,90.10
2022-12-18T05:45:55.503Z,90.10
2022-12-18T05:46:29.667Z,90.10
2022-12-18T05:47:03.657Z,90.20
2022-12-18T05:47:38.748Z,90.20
2022-12-18T05:48:18.206Z,90.10
2022-12-18T05:48:52.520Z,90.10
2022-12-18T05:49:30.059Z,90.10
2022-12-18T05:50:04.444Z,90.10
2022-12-18T05:50:39.085Z,90.10
2022-12-18T05:51:17.101Z,90.10
2022-12-18T05:51:51.012Z,90.10
2022-12-18T05:52:25.186Z,90.10
2022-12-18T05:53:00.485Z,90.10
2022-12-18T05:53:35.730Z,90.00
2022-12-18T05:54:10.249Z,90.10
2022-12-18T05:54:44.817Z,90.10
2022-12-18T05:55:19.423Z,90.10
2022-12-18T05:55:53.465Z,90.10
2022-12-18T05:56:28.542Z,90.00
2022-12-18T05:57:02.641Z,90.00
2022-12-18T05:57:37.854Z,90.00
2022-12-18T05:58:12.843Z,90.00
2022-12-18T05:58:47.839Z,90.00
2022-12-18T05:59:22.060Z,90.00
2022-12-18T05:59:55.925Z,89.90
2022-12-18T06:00:30.466Z,89.80
2022-12-18T06:01:11.487Z,89.90
2022-12-18T06:01:46.932Z,89.90
2022-12-18T06:02:22.675Z,89.80
2022-12-18T06:02:57.554Z,89.80
2022-12-18T06:03:34.062Z,89.80
2022-12-18T06:04:09.149Z,89.70
2022-12-18T06:04:44.734Z,89.70
2022-12-18T06:05:18.021Z,89.60
2022-12-18T06:05:52.006Z,89.60
2022-12-18T06:06:29.418Z,89.60
2022-12-18T06:07:06.528Z,89.60
2022-12-18T06:07:41.771Z,89.50
2022-12-18T06:08:16.100Z,89.50
2022-12-18T06:08:51.587Z,89.50
2022-12-18T06:09:25.332Z,89.50
2022-12-18T06:09:59.232Z,89.50
2022-12-18T06:10:34.203Z,89.50
2022-12-18T06:11:07.394Z,89.40
2022-12-18T06:11:41.189Z,89.40
2022-12-18T06:12:16.036Z,89.40
2022-12-18T06:12:50.923Z,89.40
2022-12-18T06:13:25.812Z,89.40
2022-12-18T06:14:02.060Z,89.50
2022-12-18T06:14:36.581Z,89.40
2022-12-18T06:15:12.118Z,89.40
2022-12-18T06:15:46.537Z,89.30
2022-12-18T06:16:22.286Z,89.40
2022-12-18T06:16:55.618Z,89.60
2022-12-18T06:17:32.226Z,89.60
2022-12-18T06:18:06.173Z,89.60
2022-12-18T06:18:40.838Z,89.70
2022-12-18T06:19:18.385Z,89.70
2022-12-18T06:19:52.429Z,89.60
2022-12-18T06:20:31.820Z,89.60
2022-12-18T06:21:09.024Z,89.70
2022-12-18T06:21:42.874Z,89.70
2022-12-18T06:22:17.233Z,89.70
2022-12-18T06:22:52.182Z,89.70
2022-12-18T06:23:26.668Z,89.80
2022-12-18T06:24:01.561Z,89.70
2022-12-18T06:24:37.205Z,89.70
2022-12-18T06:25:11.006Z,89.70
2022-12-18T06:25:46.144Z,89.70
2022-12-18T06:26:26.188Z,89.70
2022-12-18T06:27:01.357Z,89.90
2022-12-18T06:27:35.807Z,89.90
2022-12-18T06:28:10.299Z,90.00
2022-12-18T06:28:46.157Z,90.00
2022-12-18T06:29:21.802Z,90.00
2022-12-18T06:29:56.158Z,90.00
2022-12-18T06:30:32.256Z,90.00
2022-12-18T06:31:06.693Z,90.00
2022-12-18T06:31:42.159Z,90.00
2022-12-18T06:32:18.354Z,90.00
2022-12-18T06:32:56.423Z,90.00
2022-12-18T06:33:30.530Z,90.00
2022-12-18T06:34:07.264Z,90.00
2022-12-18T06:34:45.077Z,90.00
2022-12-18T06:35:18.197Z,90.00
2022-12-18T06:36:00.814Z,90.00
2022-12-18T06:36:35.107Z,90.00
2022-12-18T06:37:08.946Z,90.10
2022-12-18T06:37:43.947Z,90.10
2022-12-18T06:38:19.481Z,90.10
2022-12-18T06:38:53.986Z,90.00
2022-12-18T06:39:31.688Z,90.00
2022-12-18T06:40:07.434Z,90.00
2022-12-18T06:40:40.895Z,90.00
2022-12-18T06:41:17.782Z,89.90
2022-12-18T06:41:51.985Z,89.80
2022-12-18T06:42:26.177Z,89.60
2022-12-18T06:43:00.670Z,89.50
2022-12-18T06:43:35.141Z,89.50
2022-12-18T06:44:09.330Z,89.40
2022-12-18T06:44:47.095Z,89.30
2022-12-18T06:45:21.599Z,89.30
2022-12-18T06:46:06.268Z,89.30
2022-12-18T06:46:47.287Z,89.30
2022-12-18T06:47:21.703Z,89.20
2022-12-18T06:47:55.978Z,89.10
2022-12-18T06:48:31.862Z,89.00
2022-12-18T06:49:05.938Z,88.90
2022-12-18T06:49:40.283Z,88.90
2022-12-18T06:50:17.407Z,89.00
2022-12-18T06:50:53.023Z,89.00
2022-12-18T06:51:27.360Z,89.00
2022-12-18T06:52:02.759Z,89.10
2022-12-18T06:52:36.788Z,89.20
2022-12-18T06:53:11.237Z,89.20
2022-12-18T06:53:46.214Z,89.30
2022-12-18T06:54:20.787Z,89.30
2022-12-18T06:54:56.458Z,89.30
2022-12-18T06:55:32.213Z,89.30
2022-12-18T06:56:10.713Z,89.30
2022-12-18T06:56:46.767Z,89.60
2022-12-18T06:57:21.110Z,89.20
2022-12-18T06:57:55.413Z,89.10
2022-12-18T06:58:29.723Z,89.00
2022-12-18T06:59:05.049Z,88.80
2022-12-18T06:59:39.346Z,88.60
2022-12-18T07:00:15.786Z,88.70
2022-12-18T07:00:51.642Z,88.60
2022-12-18T07:01:25.169Z,88.70
2022-12-18T07:02:07.632Z,88.80
2022-12-18T07:02:41.628Z,88.80
2022-12-18T07:03:16.803Z,88.80
2022-12-18T07:03:55.938Z,88.60
2022-12-18T07:04:30.604Z,88.50
2022-12-18T07:05:10.510Z,88.80
2022-12-18T07:05:46.278Z,88.70
2022-12-18T07:06:21.327Z,88.70
2022-12-18T07:06:55.125Z,88.70
2022-12-18T07:07:31.415Z,88.60
2022-12-18T07:08:06.013Z,88.50
2022-12-18T07:08:39.173Z,88.50
2022-12-18T07:09:14.627Z,88.60
2022-12-18T07:09:48.886Z,88.80
2022-12-18T07:10:22.157Z,88.80
2022-12-18T07:10:58.214Z,88.60
2022-12-18T07:11:34.677Z,88.40
2022-12-18T07:12:10.197Z,88.10
2022-12-18T07:12:43.992Z,87.80
2022-12-18T07:13:17.738Z,87.60
2022-12-18T07:13:52.363Z,87.30
2022-12-18T07:14:26.292Z,87.30
2022-12-18T07:15:01.215Z,87.30
2022-12-18T07:15:37.978Z,87.20
2022-12-18T07:16:20.903Z,87.00
2022-12-18T07:16:57.821Z,87.00
2022-12-18T07:17:34.296Z,86.90
2022-12-18T07:18:08.316Z,86.50
2022-12-18T07:18:43.575Z,86.10
2022-12-18T07:19:18.236Z,86.10
2022-12-18T07:19:54.695Z,86.20
2022-12-18T07:20:28.614Z,86.30
2022-12-18T07:21:05.969Z,86.00
2022-12-18T07:21:41.547Z,86.00
2022-12-18T07:22:16.088Z,85.90
2022-12-18T07:22:56.041Z,85.90
2022-12-18T07:23:30.921Z,85.90
2022-12-18T07:24:07.686Z,86.00
2022-12-18T07:24:41.134Z,85.90
2022-12-18T07:25:18.227Z,85.90
2022-12-18T07:25:53.735Z,86.00
2022-12-18T07:26:29.129Z,86.10
2022-12-18T07:27:03.588Z,86.20
2022-12-18T07:27:39.019Z,86.00
2022-12-18T07:28:17.317Z,86.00
2022-12-18T07:28:52.504Z,86.10
2022-12-18T07:29:28.367Z,86.00
2022-12-18T07:30:02.063Z,85.90
2022-12-18T07:30:38.789Z,85.90
2022-12-18T07:31:17.121Z,85.80
2022-12-18T07:31:52.299Z,85.70
2022-12-18T07:32:25.527Z,85.60
2022-12-18T07:33:02.894Z,85.60
2022-12-18T07:33:36.532Z,85.50
2022-12-18T07:34:13.587Z,85.50
2022-12-18T07:34:48.943Z,85.30
2022-12-18T07:35:25.113Z,85.10
2022-12-18T07:36:00.411Z,85.10
2022-12-18T07:36:37.020Z,85.00
2022-12-18T07:37:10.911Z,84.90
2022-12-18T07:37:47.246Z,84.70
2022-12-18T07:38:21.551Z,84.50
2022-12-18T07:38:57.914Z,84.40
2022-12-18T07:39:32.945Z,84.40
2022-12-18T07:40:10.667Z,84.20
2022-12-18T07:40:44.538Z,84.10
2022-12-18T07:41:20.255Z,83.90
2022-12-18T07:42:08.869Z,83.90
2022-12-18T07:42:44.538Z,83.70
2022-12-18T07:43:18.403Z,83.60
2022-12-18T07:43:51.974Z,83.60
2022-12-18T07:44:28.786Z,83.50
2022-12-18T07:45:03.692Z,83.40
2022-12-18T07:45:38.449Z,83.50
2022-12-18T07:46:17.418Z,83.40
2022-12-18T07:46:52.434Z,83.50
2022-12-18T07:47:26.808Z,83.50
2022-12-18T07:48:06.167Z,83.50
2022-12-18T07:48:40.070Z,83.40
2022-12-18T07:49:13.910Z,83.20
2022-12-18T07:49:49.248Z,83.20
2022-12-18T07:50:24.182Z,83.30
2022-12-18T07:51:00.291Z,83.20
2022-12-18T07:51:35.802Z,83.10
2022-12-18T07:52:11.111Z,82.60
2022-12-18T07:52:46.120Z,82.60
2022-12-18T07:53:21.071Z,82.70
2022-12-18T07:53:55.654Z,82.70
2022-12-18T07:54:31.101Z,82.80
2022-12-18T07:55:08.187Z,82.70